Time;durP1;ratioP1;P1;durP2;ratioP2;P2;SDS_P1;SDS_P2;PMS_P1;PMS_P2;Temp;Humidity;BMP_temperature;BMP_pressure;BME280_temperature;BME280_humidity;BME280_pressure;Samples;Min_cycle;Max_cycle;Signal;HPM_P1;HPM_P2
2021/10/23 00:01:49;;;;;;;;;;;;;;;22.32;31.07;98058.75;5006425;28;883;-80
2021/10/23 00:04:15;;;;;;;;;;;;;;;22.10;31.54;98052.91;4972256;28;1021;-80
2021/10/23 00:06:40;;;;;;;;;;;;;;;22.39;31.14;98051.31;5006275;28;909;-80
2021/10/23 00:09:06;;;;;;;;;;;;;;;22.02;31.78;98045.00;5003814;28;1395;-79
2021/10/23 00:11:31;;;;;;;;;;;;;;;21.96;31.67;98043.97;5005956;28;960;-80
2021/10/23 00:13:56;;;;;;;;;;;;;;;22.03;32.01;98049.44;4989586;28;972;-79
2021/10/23 00:16:22;;;;;;;;;;;;;;;22.41;31.18;98051.66;4986263;28;1228;-79
2021/10/23 00:18:48;;;;;;;;;;;;;;;22.23;30.92;98055.78;5015279;28;1910;-80
2021/10/23 00:21:13;;;;;;;;;;;;;;;22.21;30.62;98046.94;5029202;28;1553;-80
2021/10/23 00:23:38;;;;;;;;;;;;;;;22.06;30.48;98046.50;5026892;28;945;-80
2021/10/23 00:26:04;;;;;;;;;;;;;;;22.03;29.97;98055.13;5028710;28;942;-80
2021/10/23 00:28:29;;;;;;;;;;;;;;;22.10;29.77;98050.06;5025342;28;981;-80
2021/10/23 00:30:55;;;;;;;;;;;;;;;22.09;29.95;98050.50;5044170;28;1611;-80
2021/10/23 00:33:20;;;;;;;;;;;;;;;22.04;29.83;98048.19;5044432;28;825;-80
2021/10/23 00:35:45;;;;;;;;;;;;;;;21.95;29.59;98039.53;5048155;28;857;-79
2021/10/23 00:38:11;;;;;;;;;;;;;;;21.94;29.38;98046.47;5046006;28;1894;-80
2021/10/23 00:40:36;;;;;;;;;;;;;;;22.06;29.09;98043.66;5035738;28;1580;-80
2021/10/23 00:43:02;;;;;;;;;;;;;;;21.93;29.07;98036.38;5026926;28;900;-79
2021/10/23 00:45:28;;;;;;;;;;;;;;;21.97;28.99;98037.06;5028005;28;921;-79
2021/10/23 00:47:53;;;;;;;;;;;;;;;21.97;29.34;98039.91;5026496;28;869;-79
2021/10/23 00:50:19;;;;;;;;;;;;;;;22.03;30.21;98049.44;5027618;28;1749;-80
2021/10/23 00:52:44;;;;;;;;;;;;;;;22.20;30.12;98045.34;5027384;28;832;-80
2021/10/23 00:55:10;;;;;;;;;;;;;;;21.90;31.23;98045.75;5026387;28;911;-80
2021/10/23 00:57:37;;;;;;;;;;;;;;;22.07;30.88;98035.97;5028170;28;1981;-80
2021/10/23 01:00:03;;;;;;;;;;;;;;;21.51;31.77;98027.78;5033795;28;1738;-80
2021/10/23 01:02:29;;;;;;;;;;;;;;;22.14;31.07;98035.00;5046698;28;970;-80
2021/10/23 01:04:54;;;;;;;;;;;;;;;22.16;30.81;98033.31;5042422;28;1038;-79
2021/10/23 01:07:19;;;;;;;;;;;;;;;21.95;31.16;98031.03;5047002;28;972;-79
2021/10/23 01:09:45;;;;;;;;;;;;;;;21.90;30.78;98031.59;5039767;28;1591;-79
2021/10/23 01:12:11;;;;;;;;;;;;;;;21.92;30.07;98035.59;5027250;28;1024;-79
2021/10/23 01:14:36;;;;;;;;;;;;;;;21.92;29.91;98035.59;5041724;28;964;-79
2021/10/23 01:17:02;;;;;;;;;;;;;;;21.88;29.83;98034.88;5023994;28;1894;-79
2021/10/23 01:19:27;;;;;;;;;;;;;;;21.98;29.59;98035.84;5022195;28;1652;-79
2021/10/23 01:21:53;;;;;;;;;;;;;;;21.79;29.87;98035.50;5003924;28;977;-80
2021/10/23 01:24:18;;;;;;;;;;;;;;;21.84;29.52;98029.31;5002606;28;969;-80
2021/10/23 01:26:44;;;;;;;;;;;;;;;21.64;29.79;98025.00;4984920;28;1001;-80
2021/10/23 01:29:11;;;;;;;;;;;;;;;21.65;29.67;98024.56;4984095;28;999;-80
2021/10/23 01:31:36;;;;;;;;;;;;;;;21.77;29.38;98029.50;4985669;28;1845;-80
2021/10/23 01:34:10;;;;;;;;;;;;;;;21.75;29.45;98026.31;4964091;29;1012;-80
2021/10/23 01:36:39;;;;;;;;;;;;;;;21.72;29.69;98027.22;4965391;29;974;-80
2021/10/23 01:39:05;;;;;;;;;;;;;;;21.66;29.70;98029.00;4963483;29;1911;-80
2021/10/23 01:41:30;;;;;;;;;;;;;;;21.92;29.47;98023.47;4948038;29;1814;-80
2021/10/23 01:43:56;;;;;;;;;;;;;;;21.86;29.50;98020.34;4944721;29;968;-79
2021/10/23 01:46:21;;;;;;;;;;;;;;;21.87;29.65;98021.16;4930526;29;914;-79
2021/10/23 01:48:46;;;;;;;;;;;;;;;21.79;29.68;98021.34;4924825;29;1013;-79
2021/10/23 01:51:12;;;;;;;;;;;;;;;21.82;29.98;98016.84;4941867;29;1559;-79
2021/10/23 01:53:37;;;;;;;;;;;;;;;21.91;29.78;98021.84;4958043;29;1054;-79
2021/10/23 01:56:03;;;;;;;;;;;;;;;21.85;29.89;98024.44;4965803;29;953;-79
2021/10/23 01:58:29;;;;;;;;;;;;;;;21.85;29.89;98025.22;4961852;29;1997;-79
2021/10/23 02:00:54;;;;;;;;;;;;;;;21.80;29.95;98022.94;4959604;28;1663;-80
2021/10/23 02:03:20;;;;;;;;;;;;;;;21.83;29.71;98022.03;4984922;28;989;-79
2021/10/23 02:05:45;;;;;;;;;;;;;;;21.88;29.90;98028.41;5038510;28;986;-79
2021/10/23 02:08:11;;;;;;;;;;;;;;;21.79;30.05;98032.66;5043020;28;1138;-80
2021/10/23 02:10:36;;;;;;;;;;;;;;;21.74;29.86;98036.03;5023145;28;1710;-80
2021/10/23 02:13:01;;;;;;;;;;;;;;;21.78;29.89;98031.09;5022444;28;973;-79
2021/10/23 02:15:27;;;;;;;;;;;;;;;21.84;29.65;98032.13;5022898;28;1055;-79
2021/10/23 02:17:52;;;;;;;;;;;;;;;21.81;30.33;98035.06;5022065;28;1942;-79
2021/10/23 02:20:18;;;;;;;;;;;;;;;22.21;30.58;98041.25;5001524;28;1584;-79
2021/10/23 02:22:43;;;;;;;;;;;;;;;22.21;31.57;98041.25;5022370;28;893;-79
2021/10/23 02:25:09;;;;;;;;;;;;;;;22.03;31.47;98035.28;5020755;28;995;-79
2021/10/23 02:27:35;;;;;;;;;;;;;;;21.84;31.41;98031.34;4984219;28;886;-79
2021/10/23 02:30:00;;;;;;;;;;;;;;;21.90;31.14;98031.59;4981903;28;1711;-79
2021/10/23 02:32:25;;;;;;;;;;;;;;;21.93;31.05;98033.53;4984756;28;931;-80
2021/10/23 02:34:51;;;;;;;;;;;;;;;21.91;31.00;98033.19;4982732;28;1030;-80
2021/10/23 02:37:16;;;;;;;;;;;;;;;21.87;30.91;98038.97;4984868;28;1875;-80
2021/10/23 02:39:42;;;;;;;;;;;;;;;21.98;30.41;98044.34;4986927;28;1590;-79
2021/10/23 02:42:07;;;;;;;;;;;;;;;21.92;30.72;98046.13;4988256;28;974;-79
2021/10/23 02:44:32;;;;;;;;;;;;;;;21.83;30.89;98039.03;4986823;28;1023;-80
2021/10/23 02:46:58;;;;;;;;;;;;;;;21.69;31.15;98044.28;4988702;28;962;-80
2021/10/23 02:49:23;;;;;;;;;;;;;;;21.62;31.38;98056.59;4988019;28;1068;-79
2021/10/23 02:51:49;;;;;;;;;;;;;;;21.77;30.96;98052.16;4989585;28;1670;-80
2021/10/23 02:54:14;;;;;;;;;;;;;;;21.69;30.83;98050.75;4986540;28;917;-79
2021/10/23 02:56:39;;;;;;;;;;;;;;;21.77;30.91;98055.00;4988558;28;943;-80
2021/10/23 02:59:05;;;;;;;;;;;;;;;21.69;30.83;98047.13;5028707;28;1970;-80
2021/10/23 03:01:31;;;;;;;;;;;;;;;21.61;31.08;98048.56;5049528;28;1713;-80
2021/10/23 03:03:56;;;;;;;;;;;;;;;21.74;30.55;98047.38;5048017;28;789;-80
2021/10/23 03:06:22;;;;;;;;;;;;;;;21.75;30.65;98043.28;5049433;28;930;-80
2021/10/23 03:08:48;;;;;;;;;;;;;;;21.74;30.67;98047.38;5048188;28;920;-79
2021/10/23 03:11:14;;;;;;;;;;;;;;;21.78;30.76;98048.09;5026538;28;1631;-80
2021/10/23 03:13:40;;;;;;;;;;;;;;;21.81;30.34;98041.53;5023768;28;1600;-79
2021/10/23 03:16:05;;;;;;;;;;;;;;;21.77;30.79;98043.66;5027872;28;1286;-80
2021/10/23 03:18:30;;;;;;;;;;;;;;;21.79;30.65;98038.34;5024279;28;1914;-80
2021/10/23 03:20:56;;;;;;;;;;;;;;;21.87;30.37;98041.00;5011653;28;1671;-80
2021/10/23 03:23:21;;;;;;;;;;;;;;;21.78;30.80;98042.41;5024433;28;1003;-80
2021/10/23 03:25:47;;;;;;;;;;;;;;;21.74;30.85;98041.72;5028295;28;1012;-80
2021/10/23 03:28:13;;;;;;;;;;;;;;;21.71;31.05;98036.13;5024199;28;947;-79
2021/10/23 03:30:38;;;;;;;;;;;;;;;21.38;32.27;98035.38;4989669;28;1665;-80
2021/10/23 03:33:03;;;;;;;;;;;;;;;21.37;32.74;98043.06;5005195;28;1008;-79
2021/10/23 03:35:29;;;;;;;;;;;;;;;21.96;32.05;98041.13;5006532;28;876;-79
2021/10/23 03:37:54;;;;;;;;;;;;;;;22.01;32.12;98044.22;5005945;28;1902;-79
2021/10/23 03:40:20;;;;;;;;;;;;;;;21.93;32.07;98040.00;5010227;28;1689;-79
2021/10/23 03:42:45;;;;;;;;;;;;;;;21.95;32.17;98033.88;5027724;28;853;-80
2021/10/23 03:45:13;;;;;;;;;;;;;;;22.26;31.55;98037.09;5027128;28;915;-79
2021/10/23 03:47:38;;;;;;;;;;;;;;;22.12;31.77;98037.47;5028207;28;1087;-80
2021/10/23 03:50:04;;;;;;;;;;;;;;;22.30;31.37;98037.78;5026317;28;965;-80
2021/10/23 03:52:30;;;;;;;;;;;;;;;22.44;31.17;98030.91;5034498;28;1557;-79
2021/10/23 03:54:55;;;;;;;;;;;;;;;22.35;31.08;98035.19;5045053;28;927;-80
2021/10/23 03:57:21;;;;;;;;;;;;;;;22.19;31.53;98038.09;5046467;28;1977;-80
2021/10/23 03:59:46;;;;;;;;;;;;;;;22.37;30.88;98031.91;5043616;28;881;-80
2021/10/23 04:02:11;;;;;;;;;;;;;;;21.94;31.92;98038.75;5046488;28;1087;-80
2021/10/23 04:04:37;;;;;;;;;;;;;;;22.26;31.37;98032.22;5044165;28;923;-80
2021/10/23 04:07:03;;;;;;;;;;;;;;;22.22;31.59;98025.84;5046380;28;1635;-80
2021/10/23 04:09:29;;;;;;;;;;;;;;;22.26;31.30;98026.53;5045690;28;1000;-80
2021/10/23 04:11:56;;;;;;;;;;;;;;;22.42;30.99;98024.88;5046949;28;1168;-80
2021/10/23 04:14:22;;;;;;;;;;;;;;;22.39;30.92;98028.63;5045439;28;995;-80
2021/10/23 04:16:47;;;;;;;;;;;;;;;22.18;31.38;98025.16;5046185;28;1045;-79
2021/10/23 04:19:13;;;;;;;;;;;;;;;22.18;31.27;98030.84;5044545;28;1910;-79
2021/10/23 04:25:09;;;;;;;;;;;;;;;22.09;31.56;98033.50;5004613;28;944;-79
2021/10/23 04:27:35;;;;;;;;;;;;;;;22.49;30.65;98038.88;5005924;28;1230;-80
2021/10/23 04:30:00;;;;;;;;;;;;;;;22.85;30.07;98033.69;5003502;28;1052;-79
2021/10/23 04:32:26;;;;;;;;;;;;;;;23.04;29.88;98045.28;5004945;28;960;-79
2021/10/23 04:34:51;;;;;;;;;;;;;;;22.85;29.82;98030.84;5002166;28;1108;-79
2021/10/23 04:37:17;;;;;;;;;;;;;;;22.84;30.06;98043.44;5004916;28;1983;-79
2021/10/23 04:39:42;;;;;;;;;;;;;;;23.04;29.78;98039.63;5002563;28;1305;-79
2021/10/23 04:42:08;;;;;;;;;;;;;;;23.00;29.92;98038.94;5006887;28;1195;-79
2021/10/23 04:44:33;;;;;;;;;;;;;;;22.63;30.41;98049.75;5011855;28;1322;-79
2021/10/23 04:46:59;;;;;;;;;;;;;;;23.18;29.50;98050.53;5006567;28;1299;-78
2021/10/23 04:49:24;;;;;;;;;;;;;;;23.23;29.52;98058.47;5001949;28;1235;-79
2021/10/23 04:51:49;;;;;;;;;;;;;;;23.16;29.54;98053.03;5004535;28;1203;-78
2021/10/23 04:54:15;;;;;;;;;;;;;;;22.66;30.36;98060.22;4953174;28;1356;-79
2021/10/23 04:56:40;;;;;;;;;;;;;;;22.73;30.11;98060.00;5003940;28;1290;-80
2021/10/23 04:59:06;;;;;;;;;;;;;;;22.53;30.65;98065.06;4956208;28;1887;-80
2021/10/23 05:01:31;;;;;;;;;;;;;;;23.04;29.32;98068.00;4975444;28;1227;-80
2021/10/23 05:03:57;;;;;;;;;;;;;;;22.74;29.52;98060.78;4953612;29;1327;-80
2021/10/23 05:06:22;;;;;;;;;;;;;;;22.69;29.78;98070.66;4936888;29;1373;-79
2021/10/23 05:08:48;;;;;;;;;;;;;;;22.79;29.96;98063.84;4927077;29;948;-78
2021/10/23 05:11:16;;;;;;;;;;;;;;;22.53;30.33;98073.56;4928057;29;974;-78
2021/10/23 05:13:41;;;;;;;;;;;;;;;22.38;30.45;98086.56;4924611;29;984;-79
2021/10/23 05:16:07;;;;;;;;;;;;;;;22.20;31.24;98090.69;4895170;29;1107;-78
2021/10/23 05:18:32;;;;;;;;;;;;;;;22.29;30.84;98093.69;4923402;29;1968;-79
2021/10/23 05:20:58;;;;;;;;;;;;;;;21.93;31.53;98093.03;4927459;29;915;-79
2021/10/23 05:23:23;;;;;;;;;;;;;;;22.32;30.82;98091.97;4905348;29;992;-79
2021/10/23 05:25:48;;;;;;;;;;;;;;;22.27;31.09;98098.19;4908153;29;887;-79
2021/10/23 05:28:16;;;;;;;;;;;;;;;22.27;30.82;98101.81;4905462;29;978;-78
2021/10/23 05:30:42;;;;;;;;;;;;;;;22.44;30.62;98098.97;4870356;29;955;-79
2021/10/23 05:33:07;;;;;;;;;;;;;;;23.00;29.50;98101.38;4868414;29;981;-79
2021/10/23 05:35:33;;;;;;;;;;;;;;;23.24;29.38;98110.34;4888547;29;892;-78
2021/10/23 05:37:58;;;;;;;;;;;;;;;23.19;29.50;98114.56;4939810;29;1891;-78
2021/10/23 05:40:24;;;;;;;;;;;;;;;22.76;29.81;98115.84;4945180;29;955;-79
2021/10/23 05:42:49;;;;;;;;;;;;;;;22.96;29.69;98117.72;4926305;29;970;-79
2021/10/23 05:45:15;;;;;;;;;;;;;;;22.92;29.70;98122.69;4926198;29;946;-79
2021/10/23 05:47:40;;;;;;;;;;;;;;;22.74;29.86;98129.69;4926376;29;1045;-79
2021/10/23 05:50:07;;;;;;;;;;;;;;;22.65;29.83;98132.38;4924694;29;1010;-79
2021/10/23 05:52:33;;;;;;;;;;;;;;;22.60;29.76;98130.88;4852657;29;1119;-78
2021/10/23 05:54:59;;;;;;;;;;;;;;;22.35;30.14;98134.41;4850451;29;942;-79
2021/10/23 05:57:24;;;;;;;;;;;;;;;22.51;29.61;98138.44;4852710;29;1965;-78
2021/10/23 05:59:50;;;;;;;;;;;;;;;22.49;29.78;98140.94;4850520;29;1027;-79
2021/10/23 06:02:25;;;;;;;;;;;;;;;22.41;30.28;98140.31;4894465;29;930;-79
2021/10/23 06:04:54;;;;;;;;;;;;;;;22.37;30.57;98145.28;4905382;29;899;-79
2021/10/23 06:07:20;;;;;;;;;;;;;;;22.68;30.09;98148.47;4907001;29;1033;-79
2021/10/23 06:09:45;;;;;;;;;;;;;;;23.04;29.78;98148.25;4906047;29;1047;-79
2021/10/23 06:12:10;;;;;;;;;;;;;;;23.10;29.52;98145.66;4908152;29;1010;-79
2021/10/23 06:14:39;;;;;;;;;;;;;;;23.23;29.34;98145.69;4938720;29;975;-80
2021/10/23 06:17:07;;;;;;;;;;;;;;;22.83;29.78;98149.66;4946705;29;1192;-79
2021/10/23 06:19:33;;;;;;;;;;;;;;;22.53;30.31;98145.25;4944724;29;1985;-79
2021/10/23 06:21:59;;;;;;;;;;;;;;;22.72;29.93;98151.22;4945766;29;928;-79
2021/10/23 06:24:25;;;;;;;;;;;;;;;22.70;30.00;98146.00;4957869;29;1023;-79
2021/10/23 06:26:50;;;;;;;;;;;;;;;22.62;30.53;98155.94;4965606;29;1239;-79
2021/10/23 06:29:15;;;;;;;;;;;;;;;22.97;29.91;98164.72;4963665;29;1134;-80
2021/10/23 06:31:41;;;;;;;;;;;;;;;22.83;29.87;98163.84;4965991;28;986;-80
2021/10/23 06:34:06;;;;;;;;;;;;;;;23.13;29.31;98167.47;4963564;29;966;-80
2021/10/23 06:36:32;;;;;;;;;;;;;;;22.87;29.66;98173.03;4966278;29;1178;-80
2021/10/23 06:38:57;;;;;;;;;;;;;;;22.69;29.93;98178.44;4965028;29;1910;-79
2021/10/23 06:41:23;;;;;;;;;;;;;;;22.35;30.40;98182.59;4966161;29;1042;-80
2021/10/23 06:43:48;;;;;;;;;;;;;;;21.71;31.80;98181.38;4964625;29;927;-79
2021/10/23 06:46:14;;;;;;;;;;;;;;;22.18;31.32;98171.75;4966927;29;924;-79
2021/10/23 06:48:39;;;;;;;;;;;;;;;22.25;31.35;98172.34;4946664;29;1456;-79
2021/10/23 06:51:04;;;;;;;;;;;;;;;22.57;30.77;98171.47;4965908;29;891;-79
2021/10/23 06:53:30;;;;;;;;;;;;;;;22.90;29.89;98187.59;4961570;29;1025;-80
2021/10/23 06:55:55;;;;;;;;;;;;;;;22.76;30.32;98183.91;4995100;28;910;-79
2021/10/23 06:58:21;;;;;;;;;;;;;;;23.00;29.94;98192.16;5002189;28;1910;-80
2021/10/23 07:00:46;;;;;;;;;;;;;;;22.88;29.99;98186.00;5005027;28;1030;-79
2021/10/23 07:03:11;;;;;;;;;;;;;;;23.12;29.70;98194.25;5002801;28;976;-80
2021/10/23 07:05:37;;;;;;;;;;;;;;;23.16;29.59;98189.28;5006510;28;910;-79
2021/10/23 07:08:03;;;;;;;;;;;;;;;22.39;31.12;98198.72;5005520;28;858;-80
2021/10/23 07:10:28;;;;;;;;;;;;;;;22.80;30.20;98190.28;5006070;28;857;-79
2021/10/23 07:12:54;;;;;;;;;;;;;;;22.93;29.76;98192.38;5005015;28;958;-79
2021/10/23 07:15:19;;;;;;;;;;;;;;;22.96;29.61;98197.19;5006624;28;929;-79
2021/10/23 07:17:45;;;;;;;;;;;;;;;22.51;30.46;98200.81;5026015;28;1910;-80
2021/10/23 07:20:11;;;;;;;;;;;;;;;22.62;30.76;98201.31;5024898;28;938;-79
2021/10/23 07:22:36;;;;;;;;;;;;;;;22.75;30.49;98205.03;5025772;28;992;-80
2021/10/23 07:25:02;;;;;;;;;;;;;;;23.19;30.09;98202.56;5025170;28;916;-80
2021/10/23 07:27:27;;;;;;;;;;;;;;;22.91;30.29;98203.41;5030533;28;884;-79
2021/10/23 07:29:53;;;;;;;;;;;;;;;23.34;29.56;98222.78;5009491;28;950;-80
2021/10/23 07:32:21;;;;;;;;;;;;;;;23.36;29.62;98217.44;5030643;28;905;-80
2021/10/23 07:34:47;;;;;;;;;;;;;;;23.20;29.47;98212.66;5027982;28;870;-79
2021/10/23 07:37:12;;;;;;;;;;;;;;;22.98;30.02;98209.66;5030417;28;923;-79
2021/10/23 07:39:38;;;;;;;;;;;;;;;22.65;30.23;98211.78;5028228;28;1948;-79
2021/10/23 07:42:03;;;;;;;;;;;;;;;21.71;32.07;98215.38;5030190;28;961;-80
2021/10/23 07:44:29;;;;;;;;;;;;;;;22.12;32.18;98219.63;5027997;28;922;-79
2021/10/23 07:46:54;;;;;;;;;;;;;;;22.58;30.90;98211.97;5030160;28;845;-79
2021/10/23 07:49:20;;;;;;;;;;;;;;;22.85;30.55;98215.28;5026644;28;820;-80
2021/10/23 07:51:45;;;;;;;;;;;;;;;22.51;31.24;98217.84;5028947;28;981;-79
2021/10/23 07:54:10;;;;;;;;;;;;;;;22.75;30.79;98222.03;5028128;28;973;-80
2021/10/23 07:56:36;;;;;;;;;;;;;;;22.52;30.99;98219.44;5029433;28;1056;-79
2021/10/23 07:59:02;;;;;;;;;;;;;;;22.77;30.61;98213.06;5028154;28;1891;-79
2021/10/23 08:01:27;;;;;;;;;;;;;;;22.80;30.39;98212.97;5029745;28;930;-79
2021/10/23 08:03:53;;;;;;;;;;;;;;;22.97;29.99;98216.59;5027915;28;866;-79
2021/10/23 08:06:18;;;;;;;;;;;;;;;22.30;31.16;98213.53;5029235;28;921;-79
2021/10/23 08:08:44;;;;;;;;;;;;;;;22.38;31.79;98226.25;5009116;28;910;-80
2021/10/23 08:11:09;;;;;;;;;;;;;;;22.16;32.34;98222.41;5029298;28;946;-79
2021/10/23 08:13:35;;;;;;;;;;;;;;;22.52;31.72;98225.88;5026081;28;845;-80
2021/10/23 08:16:00;;;;;;;;;;;;;;;22.97;30.67;98222.25;5029837;28;1006;-79
2021/10/23 08:18:26;;;;;;;;;;;;;;;23.10;30.68;98219.44;5025431;28;1981;-79
2021/10/23 08:20:52;;;;;;;;;;;;;;;22.85;30.99;98225.81;5036462;28;1134;-79
2021/10/23 08:23:17;;;;;;;;;;;;;;;22.88;30.83;98225.75;5045600;28;1092;-80
2021/10/23 08:25:43;;;;;;;;;;;;;;;22.99;30.61;98228.28;5048441;28;1075;-80
2021/10/23 08:28:08;;;;;;;;;;;;;;;22.63;30.74;98232.06;5046668;28;1182;-81
2021/10/23 08:30:33;;;;;;;;;;;;;;;22.34;31.80;98237.72;5048141;28;1217;-79
2021/10/23 08:32:59;;;;;;;;;;;;;;;22.50;31.50;98233.25;5046485;28;1213;-79
2021/10/23 08:35:25;;;;;;;;;;;;;;;22.98;30.77;98240.06;5045322;28;1303;-79
2021/10/23 08:37:52;;;;;;;;;;;;;;;22.68;31.31;98242.06;5047542;28;1902;-79
2021/10/23 08:40:17;;;;;;;;;;;;;;;23.09;30.79;98238.50;5048419;28;919;-79
2021/10/23 08:42:43;;;;;;;;;;;;;;;22.71;31.25;98227.00;5029730;28;898;-79
2021/10/23 08:45:09;;;;;;;;;;;;;;;23.16;30.48;98226.19;5047139;28;1024;-79
2021/10/23 08:47:36;;;;;;;;;;;;;;;23.15;29.95;98224.56;5049325;28;886;-79
2021/10/23 08:50:02;;;;;;;;;;;;;;;22.73;30.76;98230.19;5047218;28;911;-79
2021/10/23 08:52:30;;;;;;;;;;;;;;;22.86;30.32;98221.75;5048320;28;1520;-79
2021/10/23 08:54:55;;;;;;;;;;;;;;;22.61;30.82;98216.75;5045684;28;1206;-79
2021/10/23 08:57:25;;;;;;;;;;;;;;;22.52;30.99;98219.44;5048178;28;1898;-79
2021/10/23 08:59:51;;;;;;;;;;;;;;;22.67;30.72;98217.00;5047133;28;902;-79
2021/10/23 09:02:17;;;;;;;;;;;;;;;22.73;30.67;98218.84;5049045;28;923;-79
2021/10/23 09:04:42;;;;;;;;;;;;;;;22.33;31.46;98219.13;5043470;28;844;-79
2021/10/23 09:07:09;;;;;;;;;;;;;;;22.51;30.86;98229.19;4987465;28;1053;-79
2021/10/23 09:09:47;;;;;;;;;;;;;;;21.55;32.66;98229.47;4984363;28;1135;-79
2021/10/23 09:12:19;;;;;;;;;;;;;;;21.98;33.09;98237.00;4964107;28;1061;-79
2021/10/23 09:14:45;;;;;;;;;;;;;;;22.27;32.78;98226.53;4974316;28;1243;-79
2021/10/23 09:17:11;;;;;;;;;;;;;;;22.35;32.70;98230.78;4981003;28;1226;-79
2021/10/23 09:19:49;;;;;;;;;;;;;;;22.44;32.19;98235.06;4984338;28;1910;-78
2021/10/23 09:22:26;;;;;;;;;;;;;;;23.16;31.08;98233.88;4970489;28;940;-78
2021/10/23 09:24:52;;;;;;;;;;;;;;;23.02;31.45;98246.47;4983496;28;976;-79
2021/10/23 09:27:18;;;;;;;;;;;;;;;22.57;31.72;98233.06;4986263;28;1012;-79
2021/10/23 09:29:43;;;;;;;;;;;;;;;23.19;30.74;98244.34;4985446;28;975;-79
2021/10/23 09:32:10;;;;;;;;;;;;;;;23.13;30.77;98229.91;4987849;28;903;-78
2021/10/23 09:34:36;;;;;;;;;;;;;;;22.62;31.37;98252.38;4985221;28;923;-78
2021/10/23 09:37:03;;;;;;;;;;;;;;;22.47;31.23;98239.81;4983723;28;1199;-79
2021/10/23 09:39:29;;;;;;;;;;;;;;;22.57;31.39;98245.19;5028866;28;1891;-79
2021/10/23 09:42:05;;;;;;;;;;;;;;;22.66;31.79;98235.28;5047022;28;1214;-80
2021/10/23 09:44:30;;;;;;;;;;;;;;;22.56;32.20;98242.81;5042122;28;1179;-80
2021/10/23 09:46:56;;;;;;;;;;;;;;;22.86;31.55;98242.41;5046553;28;1233;-80
2021/10/23 09:49:22;;;;;;;;;;;;;;;22.97;31.37;98236.44;5043809;28;1288;-80
2021/10/23 09:51:47;;;;;;;;;;;;;;;22.48;32.29;98235.72;5046420;28;1230;-80
2021/10/23 09:54:16;;;;;;;;;;;;;;;23.02;30.93;98227.38;5041324;28;1260;-80
2021/10/23 09:56:48;;;;;;;;;;;;;;;22.77;31.23;98228.06;5046530;28;1154;-80
2021/10/23 09:59:14;;;;;;;;;;;;;;;22.71;31.13;98226.22;5042674;28;1914;-80
2021/10/23 10:01:40;;;;;;;;;;;;;;;22.75;30.72;98227.72;5043978;28;1139;-80
2021/10/23 10:04:06;;;;;;;;;;;;;;;21.93;32.48;98223.34;5027147;28;1269;-79
2021/10/23 10:06:36;;;;;;;;;;;;;;;22.42;32.18;98231.84;5046287;28;1198;-80
2021/10/23 10:09:03;;;;;;;;;;;;;;;22.51;31.94;98229.19;5044753;28;1194;-80
2021/10/23 10:11:28;;;;;;;;;;;;;;;22.86;31.34;98231.03;5046346;28;1244;-80
2021/10/23 10:13:53;;;;;;;;;;;;;;;22.55;31.77;98232.72;5044273;28;1189;-79
2021/10/23 10:16:19;;;;;;;;;;;;;;;22.70;31.61;98233.94;5045729;28;1584;-79
2021/10/23 10:18:48;;;;;;;;;;;;;;;22.66;31.41;98235.28;5043772;28;1910;-79
2021/10/23 10:21:15;;;;;;;;;;;;;;;22.94;31.00;98234.50;5047329;28;1253;-79
2021/10/23 10:23:40;;;;;;;;;;;;;;;22.95;30.81;98223.94;4995602;28;1489;-80
2021/10/23 10:26:21;;;;;;;;;;;;;;;22.75;30.86;98216.38;4997761;28;1376;-80
2021/10/23 10:29:05;;;;;;;;;;;;;;;22.71;31.14;98221.34;4992137;28;1383;-79
2021/10/23 10:31:53;;;;;;;;;;;;;;;22.27;31.28;98235.03;4996243;28;1226;-79
2021/10/23 10:34:40;;;;;;;;;;;;;;;22.69;31.37;98229.50;4992388;28;1218;-80
2021/10/23 10:40:12;;;;;;;;;;;;;;;22.90;31.38;98238.69;5021876;28;1250;-80
2021/10/23 10:42:57;;;;;;;;;;;;;;;23.07;30.97;98240.22;5021931;28;1363;-80
2021/10/23 10:45:30;;;;;;;;;;;;;;;23.05;31.03;98254.06;5021872;28;1258;-79
2021/10/23 10:48:08;;;;;;;;;;;;;;;23.28;30.62;98250.94;5019813;28;1203;-80
2021/10/23 10:50:40;;;;;;;;;;;;;;;23.24;30.45;98247.41;5018475;28;1442;-79
2021/10/23 10:53:18;;;;;;;;;;;;;;;22.87;30.72;98246.03;5021341;28;1154;-80
2021/10/23 10:55:45;;;;;;;;;;;;;;;22.60;30.70;98252.03;5043213;28;1158;-80
2021/10/23 10:58:10;;;;;;;;;;;;;;;22.47;31.06;98254.78;5041849;28;1887;-80
2021/10/23 11:00:45;;;;;;;;;;;;;;;22.35;31.83;98244.97;5046149;28;1304;-80
2021/10/23 11:03:29;;;;;;;;;;;;;;;22.48;31.62;98247.06;5045740;28;1281;-79
2021/10/23 11:05:54;;;;;;;;;;;;;;;23.02;30.64;98241.56;5026066;28;1254;-79
2021/10/23 11:08:20;;;;;;;;;;;;;;;22.77;31.01;98242.22;4985192;28;1282;-80
2021/10/23 11:10:49;;;;;;;;;;;;;;;23.29;30.09;98244.03;4989042;28;842;-80
2021/10/23 11:13:24;;;;;;;;;;;;;;;23.25;29.93;98231.97;4985281;28;1021;-79
2021/10/23 11:15:49;;;;;;;;;;;;;;;22.83;30.53;98236.81;4992285;28;1104;-80
2021/10/23 11:18:16;;;;;;;;;;;;;;;22.80;30.47;98241.34;5005143;28;1906;-79
2021/10/23 11:20:42;;;;;;;;;;;;;;;22.79;30.42;98245.41;5008865;28;1013;-79
2021/10/23 11:23:08;;;;;;;;;;;;;;;22.12;31.47;98236.66;5006438;28;893;-80
2021/10/23 11:25:34;;;;;;;;;;;;;;;22.25;32.17;98246.03;5008278;28;923;-80
2021/10/23 11:27:59;;;;;;;;;;;;;;;22.46;31.71;98252.41;5005898;28;923;-79
2021/10/23 11:30:26;;;;;;;;;;;;;;;22.83;30.73;98251.78;5006313;28;1142;-79
2021/10/23 11:32:52;;;;;;;;;;;;;;;22.82;30.59;98250.19;5005914;28;896;-80
2021/10/23 11:35:18;;;;;;;;;;;;;;;23.14;30.18;98248.53;4986950;28;999;-79
2021/10/23 11:37:46;;;;;;;;;;;;;;;23.08;30.32;98245.44;4986571;28;1910;-79
2021/10/23 11:40:11;;;;;;;;;;;;;;;23.06;29.92;98247.16;4989036;28;927;-80
2021/10/23 11:42:44;;;;;;;;;;;;;;;22.95;29.95;98240.97;4987140;28;888;-79
2021/10/23 11:45:24;;;;;;;;;;;;;;;22.59;30.76;98245.56;4986378;28;878;-80
2021/10/23 11:47:50;;;;;;;;;;;;;;;22.75;30.43;98238.25;4987265;28;1293;-80
2021/10/23 11:50:19;;;;;;;;;;;;;;;22.19;31.25;98239.31;4987128;28;920;-80
2021/10/23 11:52:54;;;;;;;;;;;;;;;22.17;31.52;98233.28;4988128;28;917;-80
2021/10/23 11:55:29;;;;;;;;;;;;;;;22.63;30.95;98243.41;4987234;28;933;-79
2021/10/23 11:58:01;;;;;;;;;;;;;;;22.62;31.48;98241.03;4985285;28;1985;-79
2021/10/23 12:00:30;;;;;;;;;;;;;;;22.36;31.68;98240.88;4966960;29;906;-79
2021/10/23 12:02:57;;;;;;;;;;;;;;;22.79;30.88;98239.72;4950491;29;957;-80
2021/10/23 12:05:24;;;;;;;;;;;;;;;22.61;30.64;98242.28;4964428;29;935;-79
2021/10/23 12:08:08;;;;;;;;;;;;;;;22.92;30.23;98242.66;4957392;29;936;-79
2021/10/23 12:10:34;;;;;;;;;;;;;;;22.47;30.57;98239.81;4966787;28;819;-80
2021/10/23 12:13:14;;;;;;;;;;;;;;;22.71;30.24;98249.69;4966583;29;1037;-79
2021/10/23 12:15:40;;;;;;;;;;;;;;;22.59;30.54;98242.72;4970089;28;1261;-79
2021/10/23 12:18:07;;;;;;;;;;;;;;;22.34;31.07;98237.72;4986090;28;1982;-80
2021/10/23 12:20:35;;;;;;;;;;;;;;;22.61;30.29;98245.13;4988080;28;939;-80
2021/10/23 12:23:01;;;;;;;;;;;;;;;22.45;30.36;98242.31;4986478;28;1182;-80
2021/10/23 12:25:30;;;;;;;;;;;;;;;22.00;31.09;98240.16;4968392;29;905;-80
2021/10/23 12:27:59;;;;;;;;;;;;;;;22.48;30.39;98241.41;4909721;29;951;-79
2021/10/23 12:30:25;;;;;;;;;;;;;;;22.29;30.37;98246.75;4912035;29;969;-79
2021/10/23 12:32:50;;;;;;;;;;;;;;;21.79;31.69;98236.59;4929004;29;991;-79
2021/10/23 12:35:19;;;;;;;;;;;;;;;22.00;31.90;98235.28;4928392;29;917;-79
2021/10/23 12:37:45;;;;;;;;;;;;;;;22.35;31.46;98239.31;4928053;29;1902;-80
2021/10/23 12:40:15;;;;;;;;;;;;;;;22.94;30.72;98236.53;4927755;29;900;-79
2021/10/23 12:42:41;;;;;;;;;;;;;;;23.22;29.94;98238.56;4928501;29;901;-80
2021/10/23 12:45:06;;;;;;;;;;;;;;;22.81;30.75;98242.16;4927059;29;1022;-80
2021/10/23 12:47:32;;;;;;;;;;;;;;;22.65;30.92;98240.16;4882486;29;992;-80
2021/10/23 12:49:57;;;;;;;;;;;;;;;22.93;30.52;98237.78;4926804;29;970;-80
2021/10/23 12:52:23;;;;;;;;;;;;;;;23.00;30.12;98229.06;4928876;29;910;-79
2021/10/23 12:54:48;;;;;;;;;;;;;;;22.73;30.59;98230.19;4926640;29;1084;-79
2021/10/23 12:57:14;;;;;;;;;;;;;;;22.62;30.55;98235.34;4959717;29;989;-79
2021/10/23 12:59:39;;;;;;;;;;;;;;;22.14;31.30;98231.34;4953798;29;1914;-79
2021/10/23 13:02:05;;;;;;;;;;;;;;;22.08;31.72;98230.25;4928594;29;984;-79
2021/10/23 13:04:30;;;;;;;;;;;;;;;22.07;32.21;98228.66;4926651;29;934;-80
2021/10/23 13:06:56;;;;;;;;;;;;;;;22.82;30.63;98226.72;4928404;29;898;-79